createdAt,value
2022-10-05T00:02:21.157Z,19.10
2022-10-05T00:04:49.322Z,18.23
2022-10-05T00:07:18.664Z,18.38
2022-10-05T00:09:48.594Z,17.42
2022-10-05T00:12:17.494Z,21.33
2022-10-05T00:14:45.587Z,21.27
2022-10-05T00:17:20.738Z,17.23
2022-10-05T00:19:52.075Z,22.25
2022-10-05T00:22:38.377Z,14.80
2022-10-05T00:25:14.539Z,18.10
2022-10-05T00:27:41.654Z,14.68
2022-10-05T00:30:17.356Z,17.63
2022-10-05T00:32:44.966Z,23.70
2022-10-05T00:35:12.571Z,20.50
2022-10-05T00:37:39.285Z,20.73
2022-10-05T00:40:35.942Z,13.50
2022-10-05T00:43:17.892Z,15.85
2022-10-05T00:45:52.941Z,16.85
2022-10-05T00:48:46.606Z,16.95
2022-10-05T00:51:21.124Z,12.13
2022-10-05T00:53:59.947Z,20.35
2022-10-05T00:56:56.930Z,14.55
2022-10-05T00:59:29.381Z,13.65
2022-10-05T01:02:22.143Z,14.68
2022-10-05T01:04:48.638Z,14.60
2022-10-05T01:07:18.720Z,16.40
2022-10-05T01:09:57.145Z,13.00
2022-10-05T01:12:45.331Z,15.73
2022-10-05T01:15:37.178Z,14.65
2022-10-05T01:18:16.552Z,19.08
2022-10-05T01:21:06.462Z,11.90
2022-10-05T01:23:39.243Z,15.05
2022-10-05T01:26:26.171Z,16.67
2022-10-05T01:29:02.585Z,12.82
2022-10-05T01:31:40.240Z,13.20
2022-10-05T01:34:15.915Z,12.07
2022-10-05T01:37:09.513Z,11.65
2022-10-05T01:40:06.450Z,15.15
2022-10-05T01:42:49.825Z,11.55
2022-10-05T01:45:28.485Z,11.57
2022-10-05T01:48:16.650Z,11.18
2022-10-05T01:51:09.015Z,14.70
2022-10-05T01:56:15.419Z,15.25
2022-10-05T01:58:48.980Z,16.65
2022-10-05T02:01:25.360Z,15.98
2022-10-05T02:04:01.386Z,17.55
2022-10-05T02:06:32.370Z,16.63
2022-10-05T02:09:09.065Z,14.95
2022-10-05T02:11:39.749Z,20.13
2022-10-05T02:14:18.504Z,16.17
2022-10-05T02:16:49.689Z,13.23
2022-10-05T02:19:35.050Z,15.90
2022-10-05T02:22:13.531Z,17.83
2022-10-05T02:24:45.405Z,20.42
2022-10-05T02:27:18.573Z,21.60
2022-10-05T02:29:48.355Z,17.23
2022-10-05T02:32:40.104Z,19.80
2022-10-05T02:35:16.072Z,19.08
2022-10-05T02:38:04.569Z,14.98
2022-10-05T02:41:23.201Z,15.05
2022-10-05T02:44:08.516Z,14.45
2022-10-05T02:46:38.282Z,10.60
2022-10-05T02:49:08.671Z,14.90
2022-10-05T02:51:57.915Z,11.60
2022-10-05T02:59:34.914Z,18.70
2022-10-05T03:02:24.771Z,10.93
2022-10-05T03:05:30.903Z,12.73
2022-10-05T03:08:06.224Z,11.25
2022-10-05T03:11:11.240Z,9.30
2022-10-05T03:13:37.700Z,12.05
2022-10-05T03:16:15.640Z,10.02
2022-10-05T03:19:11.561Z,10.00
2022-10-05T03:24:44.727Z,12.82
2022-10-05T03:27:22.999Z,13.52
2022-10-05T03:29:52.574Z,14.95
2022-10-05T03:32:44.012Z,14.10
2022-10-05T03:35:35.333Z,13.52
2022-10-05T03:39:02.273Z,13.13
2022-10-05T03:41:36.810Z,13.13
2022-10-05T03:44:36.920Z,17.90
2022-10-05T03:47:25.350Z,13.25
2022-10-05T03:50:12.131Z,13.13
2022-10-05T03:55:30.947Z,15.15
2022-10-05T03:58:03.154Z,20.23
2022-10-05T04:00:31.895Z,22.45
2022-10-05T04:03:05.418Z,23.42
2022-10-05T04:05:38.182Z,19.65
2022-10-05T04:08:18.050Z,23.90
2022-10-05T04:10:52.018Z,26.00
2022-10-05T04:13:22.369Z,27.05
2022-10-05T04:15:51.864Z,26.90
2022-10-05T04:18:26.476Z,32.45
2022-10-05T04:20:58.926Z,31.30
2022-10-05T04:23:35.011Z,36.55
2022-10-05T04:26:10.526Z,36.70
2022-10-05T04:28:51.083Z,40.60
2022-10-05T04:31:38.313Z,46.30
2022-10-05T04:34:30.203Z,41.15
2022-10-05T04:37:06.131Z,42.08
2022-10-05T04:40:05.235Z,37.40
2022-10-05T04:42:44.395Z,37.38
2022-10-05T04:45:33.915Z,41.33
2022-10-05T04:48:37.761Z,39.65
2022-10-05T04:51:19.671Z,34.25
2022-10-05T04:54:11.628Z,40.88
2022-10-05T04:56:47.596Z,25.75
2022-10-05T04:59:23.321Z,22.67
2022-10-05T05:02:12.800Z,11.93
2022-10-05T05:04:55.045Z,23.80
2022-10-05T05:10:18.258Z,17.40
2022-10-05T05:13:03.781Z,22.73
2022-10-05T05:16:01.410Z,20.77
2022-10-05T05:18:54.466Z,18.70
2022-10-05T05:21:40.931Z,16.33
2022-10-05T05:24:20.321Z,17.40
2022-10-05T05:27:01.239Z,10.00
2022-10-05T05:29:42.902Z,8.65
2022-10-05T05:32:23.420Z,6.82
2022-10-05T05:34:59.111Z,6.72
2022-10-05T05:37:36.542Z,10.18
2022-10-05T05:40:12.175Z,8.45
2022-10-05T05:42:57.436Z,6.70
2022-10-05T05:45:29.108Z,7.90
2022-10-05T05:47:58.866Z,5.78
2022-10-05T05:50:41.169Z,9.02
2022-10-05T05:55:46.520Z,7.28
2022-10-05T05:58:27.445Z,7.88
2022-10-05T06:01:20.211Z,15.70
2022-10-05T06:04:14.787Z,7.13
2022-10-05T06:06:47.113Z,10.85
2022-10-05T06:09:16.735Z,10.93
2022-10-05T06:11:51.110Z,36.13
2022-10-05T06:14:28.879Z,12.30
2022-10-05T06:16:59.979Z,6.57
2022-10-05T06:19:28.924Z,5.97
2022-10-05T06:22:12.335Z,8.07
2022-10-05T06:25:04.404Z,7.40
2022-10-05T06:27:57.832Z,7.20
2022-10-05T06:30:29.667Z,9.15
2022-10-05T06:33:12.719Z,7.10
2022-10-05T06:36:12.884Z,5.43
2022-10-05T06:39:03.173Z,6.78
2022-10-05T06:41:54.692Z,10.45
2022-10-05T06:44:46.026Z,5.43
2022-10-05T06:47:30.896Z,6.57
2022-10-05T06:50:36.745Z,6.75
2022-10-05T06:53:34.772Z,10.95
2022-10-05T06:56:20.088Z,14.57
2022-10-05T06:59:00.830Z,11.55
2022-10-05T07:01:49.539Z,11.20
2022-10-05T07:04:24.180Z,8.07
2022-10-05T07:07:17.211Z,10.98
2022-10-05T07:10:00.215Z,11.18
2022-10-05T07:13:02.983Z,12.45
2022-10-05T07:15:42.862Z,9.43
2022-10-05T07:18:29.610Z,12.45
2022-10-05T07:21:27.401Z,5.72
2022-10-05T07:24:03.150Z,8.80
2022-10-05T07:26:32.499Z,9.57
2022-10-05T07:29:07.872Z,7.03
2022-10-05T07:31:54.682Z,8.35
2022-10-05T07:34:30.239Z,7.53
2022-10-05T07:37:30.669Z,11.68
2022-10-05T07:40:06.888Z,8.55
2022-10-05T07:42:51.779Z,15.05
2022-10-05T07:45:45.533Z,13.20
2022-10-05T07:48:17.079Z,13.43
2022-10-05T07:50:43.548Z,12.75
2022-10-05T07:53:22.644Z,10.10
2022-10-05T07:55:54.660Z,15.80
2022-10-05T08:01:26.941Z,15.38
2022-10-05T08:04:00.541Z,14.88
2022-10-05T08:06:39.070Z,8.00
2022-10-05T08:09:39.082Z,8.10
2022-10-05T08:12:28.194Z,7.15
2022-10-05T08:14:57.395Z,13.25
2022-10-05T08:17:53.554Z,16.45
2022-10-05T08:20:54.770Z,17.05
2022-10-05T08:23:21.973Z,16.70
2022-10-05T08:25:54.296Z,19.23
2022-10-05T08:28:28.268Z,10.68
2022-10-05T08:31:11.830Z,19.40
2022-10-05T08:33:52.664Z,15.57
2022-10-05T08:36:29.151Z,13.43
2022-10-05T08:38:59.718Z,11.57
2022-10-05T08:41:56.946Z,12.48
2022-10-05T08:44:45.872Z,11.57
2022-10-05T08:47:19.749Z,16.02
2022-10-05T08:50:14.448Z,15.98
2022-10-05T08:53:19.789Z,10.50
2022-10-05T08:56:00.973Z,10.57
2022-10-05T08:59:10.676Z,12.90
2022-10-05T09:02:00.799Z,11.80
2022-10-05T09:04:38.574Z,15.40
2022-10-05T09:07:43.476Z,16.33
2022-10-05T09:10:58.359Z,15.25
2022-10-05T09:13:45.119Z,12.43
2022-10-05T09:16:20.888Z,20.05
2022-10-05T09:19:25.215Z,16.77
2022-10-05T09:22:02.000Z,19.25
2022-10-05T09:24:48.348Z,20.58
2022-10-05T09:27:20.067Z,9.88
2022-10-05T09:30:05.585Z,13.10
2022-10-05T09:32:52.743Z,18.40
2022-10-05T09:35:40.161Z,12.15
2022-10-05T09:38:17.648Z,13.15
2022-10-05T09:40:50.378Z,18.33
2022-10-05T09:43:16.871Z,12.57
2022-10-05T09:45:58.795Z,10.88
2022-10-05T09:48:58.925Z,10.93
2022-10-05T09:51:52.114Z,11.85
2022-10-05T09:54:36.405Z,19.17
2022-10-05T09:57:18.112Z,17.85
2022-10-05T10:00:08.924Z,19.85
2022-10-05T10:03:24.472Z,15.10
2022-10-05T10:06:00.009Z,16.35
2022-10-05T10:08:38.884Z,16.02
2022-10-05T10:11:24.037Z,20.58
2022-10-05T10:13:56.688Z,16.27
2022-10-05T10:17:00.678Z,13.15
2022-10-05T10:19:36.513Z,14.77
2022-10-05T10:22:09.230Z,16.38
2022-10-05T10:24:44.983Z,16.30
2022-10-05T10:27:28.972Z,12.68
2022-10-05T10:30:13.869Z,15.73
2022-10-05T10:33:02.177Z,12.10
2022-10-05T10:35:41.925Z,15.43
2022-10-05T10:38:28.481Z,11.88
2022-10-05T10:41:16.801Z,10.82
2022-10-05T10:43:57.320Z,12.30
2022-10-05T10:46:45.632Z,13.52
2022-10-05T10:49:49.267Z,8.18
2022-10-05T10:52:29.324Z,15.25
2022-10-05T10:55:23.261Z,10.07
2022-10-05T10:58:12.355Z,9.40
2022-10-05T11:00:49.954Z,5.53
2022-10-05T11:03:31.430Z,8.80
2022-10-05T11:06:19.888Z,3.85
2022-10-05T11:08:46.644Z,6.88
2022-10-05T11:11:41.193Z,3.88
2022-10-05T11:14:32.291Z,3.53
2022-10-05T11:17:33.494Z,4.55
2022-10-05T11:20:37.811Z,4.82
2022-10-05T11:23:35.330Z,2.65
2022-10-05T11:26:14.669Z,4.97
2022-10-05T11:28:50.503Z,3.33
2022-10-05T11:31:26.493Z,3.45
2022-10-05T11:34:21.184Z,6.78
2022-10-05T11:37:10.281Z,2.22
2022-10-05T11:39:58.862Z,3.25
2022-10-05T11:42:59.157Z,6.10
2022-10-05T11:45:31.729Z,3.42
2022-10-05T11:48:16.931Z,3.83
2022-10-05T11:51:10.813Z,9.27
2022-10-05T11:53:43.471Z,1.92
2022-10-05T11:56:23.483Z,10.35
2022-10-05T11:59:20.885Z,2.67
2022-10-05T12:02:33.470Z,5.65
2022-10-05T12:05:21.727Z,5.03
2022-10-05T12:07:54.075Z,4.90
2022-10-05T12:10:32.768Z,5.38
2022-10-05T12:13:19.407Z,6.22
2022-10-05T12:16:18.531Z,4.20
2022-10-05T12:19:08.644Z,3.60
2022-10-05T12:21:47.167Z,4.50
2022-10-05T12:24:26.790Z,2.65
2022-10-05T12:27:07.520Z,3.92
2022-10-05T12:29:57.533Z,2.40
2022-10-05T12:32:41.077Z,4.13
2022-10-05T12:35:46.705Z,4.78
2022-10-05T12:38:30.143Z,1.70
2022-10-05T12:41:21.367Z,3.55
2022-10-05T12:43:50.558Z,2.83
2022-10-05T12:47:00.290Z,4.50
2022-10-05T12:49:42.213Z,7.22
2022-10-05T12:52:47.548Z,1.42
2022-10-05T12:55:43.114Z,5.05
2022-10-05T12:58:38.745Z,3.28
2022-10-05T13:01:34.211Z,2.25
2022-10-05T13:04:19.605Z,2.13
2022-10-05T13:06:46.123Z,5.70
2022-10-05T13:09:24.134Z,2.65
2022-10-05T13:11:58.651Z,5.00
2022-10-05T13:14:53.760Z,2.28
2022-10-05T13:17:44.430Z,2.35
2022-10-05T13:20:21.522Z,2.33
2022-10-05T13:23:13.245Z,2.45
2022-10-05T13:25:52.311Z,3.88
2022-10-05T13:28:24.736Z,2.08
2022-10-05T13:31:09.156Z,7.15
2022-10-05T13:33:56.707Z,4.60
2022-10-05T13:36:35.916Z,3.28
2022-10-05T13:39:29.465Z,4.32
2022-10-05T13:41:59.619Z,2.67
2022-10-05T13:44:30.561Z,3.25
2022-10-05T13:46:59.882Z,3.03
2022-10-05T13:49:49.394Z,2.15
2022-10-05T13:52:44.608Z,3.15
2022-10-05T13:55:21.990Z,2.40
2022-10-05T13:58:06.109Z,4.78
2022-10-05T14:00:48.222Z,6.32
2022-10-05T14:04:03.895Z,4.13
2022-10-05T14:06:33.178Z,2.40
2022-10-05T14:09:00.433Z,2.85
2022-10-05T14:11:32.170Z,3.10
2022-10-05T14:16:33.663Z,5.43
2022-10-05T14:19:06.269Z,6.68
2022-10-05T14:21:47.340Z,2.85
2022-10-05T14:24:42.393Z,3.92
2022-10-05T14:27:55.434Z,4.45
2022-10-05T14:30:25.721Z,3.40
2022-10-05T14:32:56.166Z,2.83
2022-10-05T14:35:30.683Z,7.13
2022-10-05T14:38:02.899Z,3.38
2022-10-05T14:40:38.003Z,2.97
2022-10-05T14:43:16.704Z,2.03
2022-10-05T14:45:57.016Z,3.53
2022-10-05T14:48:27.910Z,4.82
2022-10-05T14:50:56.305Z,3.70
2022-10-05T14:53:25.449Z,6.43
2022-10-05T14:56:14.341Z,2.30
2022-10-05T14:59:04.153Z,4.28
2022-10-05T15:01:35.161Z,5.65
2022-10-05T15:04:30.747Z,4.93
2022-10-05T15:07:12.723Z,3.42
2022-10-05T15:10:06.850Z,3.60
2022-10-05T15:12:38.601Z,2.17
2022-10-05T15:15:22.501Z,4.03
2022-10-05T15:17:55.288Z,3.33
2022-10-05T15:20:37.019Z,3.30
2022-10-05T15:26:08.537Z,4.03
2022-10-05T15:28:51.622Z,3.75
2022-10-05T15:31:39.376Z,6.97
2022-10-05T15:34:26.551Z,3.75
2022-10-05T15:37:01.006Z,5.18
2022-10-05T15:39:27.487Z,2.75
2022-10-05T15:42:03.489Z,5.85
2022-10-05T15:44:34.270Z,6.07
2022-10-05T15:47:09.118Z,3.33
2022-10-05T15:49:38.346Z,2.03
2022-10-05T15:52:04.840Z,6.50
2022-10-05T15:55:11.336Z,3.05
2022-10-05T15:57:43.336Z,6.80
2022-10-05T16:00:15.974Z,2.70
2022-10-05T16:03:00.272Z,4.03
2022-10-05T16:05:57.276Z,3.85
2022-10-05T16:08:51.155Z,11.05
2022-10-05T16:11:58.998Z,2.50
2022-10-05T16:14:32.428Z,3.33
2022-10-05T16:16:58.963Z,3.30
2022-10-05T16:19:52.388Z,6.68
2022-10-05T16:22:39.928Z,7.93
2022-10-05T16:25:22.320Z,4.30
2022-10-05T16:28:16.025Z,4.72
2022-10-05T16:30:45.313Z,3.67
2022-10-05T16:33:38.080Z,3.20
2022-10-05T16:36:25.167Z,6.72
2022-10-05T16:39:00.112Z,6.03
2022-10-05T16:41:34.920Z,5.68
2022-10-05T16:44:13.527Z,6.03
2022-10-05T16:46:45.250Z,8.93
2022-10-05T16:49:50.394Z,10.65
2022-10-05T16:52:21.420Z,11.93
2022-10-05T16:54:55.471Z,13.47
2022-10-05T16:57:43.779Z,11.68
2022-10-05T17:00:34.107Z,11.27
2022-10-05T17:03:36.464Z,17.20
2022-10-05T17:08:49.706Z,8.35
2022-10-05T17:11:50.279Z,9.00
2022-10-05T17:14:20.236Z,8.02
2022-10-05T17:17:15.916Z,7.65
2022-10-05T17:20:29.399Z,8.20
2022-10-05T17:23:05.149Z,7.50
2022-10-05T17:25:42.772Z,11.27
2022-10-05T17:28:18.428Z,11.75
2022-10-05T17:31:07.708Z,6.90
2022-10-05T17:33:54.824Z,6.45
2022-10-05T17:36:21.467Z,6.00
2022-10-05T17:38:51.152Z,5.05
2022-10-05T17:41:20.649Z,6.80
2022-10-05T17:44:05.963Z,7.63
2022-10-05T17:46:45.952Z,7.72
2022-10-05T17:49:37.780Z,9.32
2022-10-05T17:52:45.139Z,5.05
2022-10-05T17:55:26.663Z,5.85
2022-10-05T17:57:54.764Z,8.73
2022-10-05T18:00:56.615Z,6.28
2022-10-05T18:03:42.633Z,12.77
2022-10-05T18:06:28.426Z,7.95
2022-10-05T18:09:13.793Z,8.02
2022-10-05T18:11:48.151Z,7.47
2022-10-05T18:14:27.101Z,11.05
2022-10-05T18:17:03.463Z,11.00
2022-10-05T18:19:32.385Z,7.82
2022-10-05T18:22:25.111Z,5.97
2022-10-05T18:24:55.963Z,11.50
2022-10-05T18:27:34.164Z,14.63
2022-10-05T18:30:05.179Z,7.03
2022-10-05T18:32:47.744Z,6.05
2022-10-05T18:35:21.653Z,9.95
2022-10-05T18:38:13.309Z,7.97
2022-10-05T18:41:16.556Z,9.35
2022-10-05T18:44:13.467Z,16.60
2022-10-05T18:46:46.078Z,11.20
2022-10-05T18:49:40.458Z,9.25
2022-10-05T18:52:16.416Z,6.63
2022-10-05T18:55:02.664Z,12.13
2022-10-05T18:57:43.747Z,7.75
2022-10-05T19:00:22.446Z,9.00
2022-10-05T19:03:08.292Z,5.97
2022-10-05T19:06:13.406Z,5.55
2022-10-05T19:09:04.197Z,5.60
2022-10-05T19:11:49.792Z,5.10
2022-10-05T19:14:42.346Z,8.32
2022-10-05T19:17:25.876Z,4.53
2022-10-05T19:20:04.009Z,7.18
2022-10-05T19:22:49.325Z,7.50
2022-10-05T19:25:37.637Z,9.90
2022-10-05T19:28:26.058Z,7.53
2022-10-05T19:31:11.585Z,9.27
2022-10-05T19:34:03.365Z,4.35
2022-10-05T19:36:52.888Z,5.78
2022-10-05T19:39:39.031Z,12.68
2022-10-05T19:42:11.619Z,7.25
2022-10-05T19:44:52.312Z,10.93
2022-10-05T19:48:03.149Z,6.57
2022-10-05T19:50:33.574Z,7.30
2022-10-05T19:53:04.179Z,4.18
2022-10-05T19:55:42.079Z,5.95
2022-10-05T19:58:27.158Z,7.88
2022-10-05T20:01:03.146Z,5.03
2022-10-05T20:03:32.423Z,9.98
2022-10-05T20:06:01.535Z,8.98
2022-10-05T20:08:39.739Z,10.45
2022-10-05T20:11:20.986Z,4.72
2022-10-05T20:14:09.491Z,11.50
2022-10-05T20:16:55.429Z,5.55
2022-10-05T20:19:49.721Z,6.22
2022-10-05T20:22:35.371Z,4.55
2022-10-05T20:25:28.867Z,5.18
2022-10-05T20:27:56.809Z,8.48
2022-10-05T20:30:25.854Z,9.05
2022-10-05T20:32:57.645Z,14.80
2022-10-05T20:35:27.790Z,5.40
2022-10-05T20:37:59.937Z,13.60
2022-10-05T20:40:29.066Z,10.75
2022-10-05T20:42:56.871Z,8.48
2022-10-05T20:45:23.471Z,9.57
2022-10-05T20:47:50.737Z,8.75
2022-10-05T20:50:17.519Z,12.32
2022-10-05T20:52:44.061Z,7.75
2022-10-05T20:55:11.947Z,8.90
2022-10-05T20:57:42.048Z,10.30
2022-10-05T21:00:10.975Z,6.95
2022-10-05T21:02:38.610Z,12.80
2022-10-05T21:05:05.829Z,10.40
2022-10-05T21:07:34.244Z,9.93
2022-10-05T21:10:09.977Z,4.60
2022-10-05T21:12:36.951Z,9.85
2022-10-05T21:15:04.725Z,7.18
2022-10-05T21:17:32.299Z,9.35
2022-10-05T21:19:59.916Z,8.82
2022-10-05T21:22:26.490Z,7.18
2022-10-05T21:24:55.094Z,8.30
2022-10-05T21:27:21.656Z,9.98
2022-10-05T21:29:48.164Z,6.82
2022-10-05T21:32:14.767Z,5.50
2022-10-05T21:34:41.371Z,15.55
2022-10-05T21:37:08.722Z,12.02
2022-10-05T21:39:36.568Z,8.10
2022-10-05T21:42:03.575Z,12.80
2022-10-05T21:44:30.113Z,7.53
2022-10-05T21:46:56.727Z,12.27
2022-10-05T21:49:24.043Z,10.88
2022-10-05T21:51:50.636Z,7.22
2022-10-05T21:54:21.094Z,6.65
2022-10-05T21:56:51.547Z,8.43
2022-10-05T21:59:21.870Z,12.40
2022-10-05T22:01:48.448Z,11.85
2022-10-05T22:04:15.167Z,7.00
2022-10-05T22:06:42.160Z,10.50
2022-10-05T22:09:08.906Z,9.70
2022-10-05T22:11:35.507Z,9.10
2022-10-05T22:14:04.697Z,12.13
2022-10-05T22:16:35.188Z,12.10
2022-10-05T22:19:10.452Z,19.02
2022-10-05T22:21:41.455Z,11.23
2022-10-05T22:24:09.398Z,11.10
2022-10-05T22:26:36.133Z,11.32
2022-10-05T22:29:03.462Z,9.23
2022-10-05T22:31:30.305Z,9.55
2022-10-05T22:33:56.884Z,11.13
2022-10-05T22:36:23.694Z,15.88
2022-10-05T22:38:50.391Z,13.05
2022-10-05T22:41:18.475Z,14.15
2022-10-05T22:43:48.712Z,10.88
2022-10-05T22:46:16.160Z,6.90
2022-10-05T22:48:43.202Z,11.32
2022-10-05T22:51:10.179Z,11.55
2022-10-05T22:53:36.854Z,17.42
2022-10-05T22:56:08.011Z,13.15
2022-10-05T22:58:35.069Z,8.57
2022-10-05T23:01:04.458Z,10.40
2022-10-05T23:03:32.189Z,9.82
2022-10-05T23:06:03.103Z,9.98
2022-10-05T23:08:31.718Z,14.50
2022-10-05T23:11:16.786Z,8.75
2022-10-05T23:13:43.712Z,15.55
2022-10-05T23:16:12.755Z,11.68
2022-10-05T23:18:40.479Z,14.75
2022-10-05T23:21:08.570Z,11.40
2022-10-05T23:23:44.051Z,12.20
2022-10-05T23:26:11.427Z,11.60
2022-10-05T23:28:46.298Z,10.20
2022-10-05T23:31:15.807Z,6.65
2022-10-05T23:33:42.433Z,16.98
2022-10-05T23:36:13.423Z,8.80
2022-10-05T23:38:40.010Z,7.00
2022-10-05T23:41:07.581Z,8.00
2022-10-05T23:43:35.127Z,4.18
2022-10-05T23:46:02.612Z,6.82
2022-10-05T23:48:30.075Z,1.88
2022-10-05T23:50:57.660Z,3.83
2022-10-05T23:53:24.371Z,5.68
2022-10-05T23:55:54.500Z,4.90
2022-10-05T23:58:22.507Z,4.18
